sensor_id;sensor_type;location;lat;lon;timestamp;temperature;humidity
22940;DHT22;11636;52.086;5.090;2023-03-01T00:00:49;1.00;99.90
22940;DHT22;11636;52.086;5.090;2023-03-01T00:03:22;1.00;99.90
22940;DHT22;11636;52.086;5.090;2023-03-01T00:05:49;1.00;99.90
22940;DHT22;11636;52.086;5.090;2023-03-01T00:08:16;1.00;99.90
22940;DHT22;11636;52.086;5.090;2023-03-01T00:10:49;0.90;99.90
22940;DHT22;11636;52.086;5.090;2023-03-01T00:13:25;0.90;99.90
22940;DHT22;11636;52.086;5.090;2023-03-01T00:15:59;0.90;99.90
22940;DHT22;11636;52.086;5.090;2023-03-01T00:18:28;0.80;99.90
22940;DHT22;11636;52.086;5.090;2023-03-01T00:20:55;0.80;99.90
22940;DHT22;11636;52.086;5.090;2023-03-01T00:23:29;0.80;99.90
22940;DHT22;11636;52.086;5.090;2023-03-01T00:25:56;0.80;99.90
22940;DHT22;11636;52.086;5.090;2023-03-01T00:28:25;0.80;99.90
22940;DHT22;11636;52.086;5.090;2023-03-01T00:31:06;0.80;99.90
22940;DHT22;11636;52.086;5.090;2023-03-01T00:33:35;0.80;99.90
22940;DHT22;11636;52.086;5.090;2023-03-01T00:36:10;0.80;99.90
22940;DHT22;11636;52.086;5.090;2023-03-01T00:38:38;0.70;99.90
22940;DHT22;11636;52.086;5.090;2023-03-01T00:41:12;0.70;99.90
22940;DHT22;11636;52.086;5.090;2023-03-01T00:43:46;0.70;99.90
22940;DHT22;11636;52.086;5.090;2023-03-01T00:46:14;0.60;99.90
22940;DHT22;11636;52.086;5.090;2023-03-01T00:48:42;0.70;99.90
22940;DHT22;11636;52.086;5.090;2023-03-01T00:51:18;0.60;99.90
22940;DHT22;11636;52.086;5.090;2023-03-01T00:53:53;0.60;99.90
22940;DHT22;11636;52.086;5.090;2023-03-01T00:56:21;0.60;99.90
22940;DHT22;11636;52.086;5.090;2023-03-01T00:59:01;0.50;99.90
22940;DHT22;11636;52.086;5.090;2023-03-01T01:01:30;0.50;99.90
22940;DHT22;11636;52.086;5.090;2023-03-01T01:04:06;0.60;99.90
22940;DHT22;11636;52.086;5.090;2023-03-01T01:06:42;0.50;99.90
22940;DHT22;11636;52.086;5.090;2023-03-01T01:09:12;0.50;99.90
22940;DHT22;11636;52.086;5.090;2023-03-01T01:11:51;0.50;99.90
22940;DHT22;11636;52.086;5.090;2023-03-01T01:14:19;0.40;99.90
22940;DHT22;11636;52.086;5.090;2023-03-01T01:16:51;0.40;99.90
22940;DHT22;11636;52.086;5.090;2023-03-01T01:19:25;0.40;99.90
22940;DHT22;11636;52.086;5.090;2023-03-01T01:21:52;0.40;99.90
22940;DHT22;11636;52.086;5.090;2023-03-01T01:24:19;0.40;99.90
22940;DHT22;11636;52.086;5.090;2023-03-01T01:26:52;0.40;99.90
22940;DHT22;11636;52.086;5.090;2023-03-01T01:29:19;0.40;99.90
22940;DHT22;11636;52.086;5.090;2023-03-01T01:31:46;0.40;99.90
22940;DHT22;11636;52.086;5.090;2023-03-01T01:34:21;0.30;99.90
22940;DHT22;11636;52.086;5.090;2023-03-01T01:36:49;0.40;99.90
22940;DHT22;11636;52.086;5.090;2023-03-01T01:39:21;0.30;99.90
22940;DHT22;11636;52.086;5.090;2023-03-01T01:41:54;0.30;99.90
22940;DHT22;11636;52.086;5.090;2023-03-01T01:44:25;0.30;99.90
22940;DHT22;11636;52.086;5.090;2023-03-01T01:46:56;0.30;99.90
22940;DHT22;11636;52.086;5.090;2023-03-01T01:52:09;0.30;99.90
22940;DHT22;11636;52.086;5.090;2023-03-01T01:54:55;0.30;99.90
22940;DHT22;11636;52.086;5.090;2023-03-01T01:57:30;0.30;99.90
22940;DHT22;11636;52.086;5.090;2023-03-01T02:00:19;0.30;99.90
22940;DHT22;11636;52.086;5.090;2023-03-01T02:02:48;0.20;99.90
22940;DHT22;11636;52.086;5.090;2023-03-01T02:05:51;0.20;99.90
22940;DHT22;11636;52.086;5.090;2023-03-01T02:08:22;0.20;99.90
22940;DHT22;11636;52.086;5.090;2023-03-01T02:10:58;0.20;99.90
22940;DHT22;11636;52.086;5.090;2023-03-01T02:13:31;0.10;99.90
22940;DHT22;11636;52.086;5.090;2023-03-01T02:16:09;0.10;99.90
22940;DHT22;11636;52.086;5.090;2023-03-01T02:18:38;0.10;99.90
22940;DHT22;11636;52.086;5.090;2023-03-01T02:21:52;0.10;99.90
22940;DHT22;11636;52.086;5.090;2023-03-01T02:27:26;0.10;99.90
22940;DHT22;11636;52.086;5.090;2023-03-01T02:29:56;0.10;99.90
22940;DHT22;11636;52.086;5.090;2023-03-01T02:32:30;0.10;99.90
22940;DHT22;11636;52.086;5.090;2023-03-01T02:34:57;0.00;99.90
22940;DHT22;11636;52.086;5.090;2023-03-01T02:37:26;0.00;99.90
22940;DHT22;11636;52.086;5.090;2023-03-01T02:40:03;0.00;99.90
22940;DHT22;11636;52.086;5.090;2023-03-01T02:42:43;0.00;99.90
22940;DHT22;11636;52.086;5.090;2023-03-01T02:45:19;0.00;99.90
22940;DHT22;11636;52.086;5.090;2023-03-01T02:47:46;0.00;99.90
22940;DHT22;11636;52.086;5.090;2023-03-01T02:53:10;-0.10;99.90
22940;DHT22;11636;52.086;5.090;2023-03-01T02:55:39;-0.10;99.90
22940;DHT22;11636;52.086;5.090;2023-03-01T02:58:13;-0.10;99.90
22940;DHT22;11636;52.086;5.090;2023-03-01T03:00:47;-0.10;99.90
22940;DHT22;11636;52.086;5.090;2023-03-01T03:03:20;-0.10;99.90
22940;DHT22;11636;52.086;5.090;2023-03-01T03:05:54;-0.20;99.90
22940;DHT22;11636;52.086;5.090;2023-03-01T03:08:21;-0.20;99.90
22940;DHT22;11636;52.086;5.090;2023-03-01T03:10:51;-0.20;99.90
22940;DHT22;11636;52.086;5.090;2023-03-01T03:13:26;-0.20;99.90
22940;DHT22;11636;52.086;5.090;2023-03-01T03:15:55;-0.30;99.90
22940;DHT22;11636;52.086;5.090;2023-03-01T03:18:23;-0.20;99.90
22940;DHT22;11636;52.086;5.090;2023-03-01T03:20:59;-0.30;99.90
22940;DHT22;11636;52.086;5.090;2023-03-01T03:23:25;-0.30;99.90
22940;DHT22;11636;52.086;5.090;2023-03-01T03:25:52;-0.30;99.90
22940;DHT22;11636;52.086;5.090;2023-03-01T03:28:26;-0.30;99.90
22940;DHT22;11636;52.086;5.090;2023-03-01T03:30:52;-0.40;99.90
22940;DHT22;11636;52.086;5.090;2023-03-01T03:33:26;-0.40;99.90
22940;DHT22;11636;52.086;5.090;2023-03-01T03:35:52;-0.40;99.90
22940;DHT22;11636;52.086;5.090;2023-03-01T03:38:26;-0.40;99.90
22940;DHT22;11636;52.086;5.090;2023-03-01T03:43:37;-0.40;99.90
22940;DHT22;11636;52.086;5.090;2023-03-01T03:46:05;-0.50;99.90
22940;DHT22;11636;52.086;5.090;2023-03-01T03:48:44;-0.50;99.90
22940;DHT22;11636;52.086;5.090;2023-03-01T03:51:18;-0.50;99.90
22940;DHT22;11636;52.086;5.090;2023-03-01T03:53:52;-0.50;99.90
22940;DHT22;11636;52.086;5.090;2023-03-01T03:56:19;-0.50;99.90
22940;DHT22;11636;52.086;5.090;2023-03-01T03:58:54;-0.60;99.90
22940;DHT22;11636;52.086;5.090;2023-03-01T04:01:21;-0.60;99.90
22940;DHT22;11636;52.086;5.090;2023-03-01T04:03:48;-0.60;99.90
22940;DHT22;11636;52.086;5.090;2023-03-01T04:06:21;-0.60;99.90
22940;DHT22;11636;52.086;5.090;2023-03-01T04:08:48;-0.60;99.90
22940;DHT22;11636;52.086;5.090;2023-03-01T04:11:24;-0.60;99.90
22940;DHT22;11636;52.086;5.090;2023-03-01T04:14:00;-0.60;99.90
22940;DHT22;11636;52.086;5.090;2023-03-01T04:16:33;-0.60;99.90
22940;DHT22;11636;52.086;5.090;2023-03-01T04:19:06;-0.70;99.90
22940;DHT22;11636;52.086;5.090;2023-03-01T04:21:39;-0.70;99.90
22940;DHT22;11636;52.086;5.090;2023-03-01T04:24:06;-0.70;99.90
22940;DHT22;11636;52.086;5.090;2023-03-01T04:26:33;-0.70;99.90
22940;DHT22;11636;52.086;5.090;2023-03-01T04:29:07;-0.70;99.90
22940;DHT22;11636;52.086;5.090;2023-03-01T04:31:34;-0.70;99.90
22940;DHT22;11636;52.086;5.090;2023-03-01T04:34:07;-0.70;99.90
22940;DHT22;11636;52.086;5.090;2023-03-01T04:36:34;-0.70;99.90
22940;DHT22;11636;52.086;5.090;2023-03-01T04:39:08;-0.80;99.90
22940;DHT22;11636;52.086;5.090;2023-03-01T04:41:40;-0.80;99.90
22940;DHT22;11636;52.086;5.090;2023-03-01T04:44:07;-0.80;99.90
22940;DHT22;11636;52.086;5.090;2023-03-01T04:46:42;-0.80;99.90
22940;DHT22;11636;52.086;5.090;2023-03-01T04:49:09;-0.80;99.90
22940;DHT22;11636;52.086;5.090;2023-03-01T04:51:42;-0.80;99.90
22940;DHT22;11636;52.086;5.090;2023-03-01T04:54:09;-0.80;99.90
22940;DHT22;11636;52.086;5.090;2023-03-01T04:56:43;-0.80;99.90
22940;DHT22;11636;52.086;5.090;2023-03-01T04:59:09;-0.80;99.90
22940;DHT22;11636;52.086;5.090;2023-03-01T05:01:45;-0.90;99.90
22940;DHT22;11636;52.086;5.090;2023-03-01T05:04:12;-0.90;99.90
22940;DHT22;11636;52.086;5.090;2023-03-01T05:06:40;-0.90;99.90
22940;DHT22;11636;52.086;5.090;2023-03-01T05:09:13;-0.90;99.90
22940;DHT22;11636;52.086;5.090;2023-03-01T05:11:39;-0.90;99.90
22940;DHT22;11636;52.086;5.090;2023-03-01T05:14:13;-0.90;99.90
22940;DHT22;11636;52.086;5.090;2023-03-01T05:16:40;-0.90;99.90
22940;DHT22;11636;52.086;5.090;2023-03-01T05:19:13;-0.90;99.90
22940;DHT22;11636;52.086;5.090;2023-03-01T05:21:42;-0.90;99.90
22940;DHT22;11636;52.086;5.090;2023-03-01T05:24:35;-1.00;99.90
22940;DHT22;11636;52.086;5.090;2023-03-01T05:27:08;-1.00;99.90
22940;DHT22;11636;52.086;5.090;2023-03-01T05:29:41;-1.00;99.90
22940;DHT22;11636;52.086;5.090;2023-03-01T05:32:15;-1.00;99.90
22940;DHT22;11636;52.086;5.090;2023-03-01T05:34:43;-1.00;99.90
22940;DHT22;11636;52.086;5.090;2023-03-01T05:37:18;-1.00;99.90
22940;DHT22;11636;52.086;5.090;2023-03-01T05:39:46;-1.00;99.90
22940;DHT22;11636;52.086;5.090;2023-03-01T05:42:19;-1.00;99.90
22940;DHT22;11636;52.086;5.090;2023-03-01T05:44:46;-1.10;99.90
22940;DHT22;11636;52.086;5.090;2023-03-01T05:47:19;-1.00;99.90
22940;DHT22;11636;52.086;5.090;2023-03-01T05:49:47;-1.00;99.90
22940;DHT22;11636;52.086;5.090;2023-03-01T05:52:23;-1.00;99.90
22940;DHT22;11636;52.086;5.090;2023-03-01T05:54:50;-1.00;99.90
22940;DHT22;11636;52.086;5.090;2023-03-01T05:57:23;-1.00;99.90
22940;DHT22;11636;52.086;5.090;2023-03-01T05:59:56;-1.00;99.90
22940;DHT22;11636;52.086;5.090;2023-03-01T06:02:23;-1.00;99.90
22940;DHT22;11636;52.086;5.090;2023-03-01T06:04:50;-1.00;99.90
22940;DHT22;11636;52.086;5.090;2023-03-01T06:07:23;-1.00;99.90
22940;DHT22;11636;52.086;5.090;2023-03-01T06:09:50;-1.00;99.90
22940;DHT22;11636;52.086;5.090;2023-03-01T06:12:23;-1.00;99.90
22940;DHT22;11636;52.086;5.090;2023-03-01T06:14:50;-1.00;99.90
22940;DHT22;11636;52.086;5.090;2023-03-01T06:17:24;-1.00;99.90
22940;DHT22;11636;52.086;5.090;2023-03-01T06:19:57;-1.00;99.90
22940;DHT22;11636;52.086;5.090;2023-03-01T06:22:30;-1.00;99.90
22940;DHT22;11636;52.086;5.090;2023-03-01T06:25:03;-1.00;99.90
22940;DHT22;11636;52.086;5.090;2023-03-01T06:27:37;-1.00;99.90
22940;DHT22;11636;52.086;5.090;2023-03-01T06:30:05;-1.00;99.90
22940;DHT22;11636;52.086;5.090;2023-03-01T06:32:38;-1.00;99.90
22940;DHT22;11636;52.086;5.090;2023-03-01T06:35:13;-1.00;99.90
22940;DHT22;11636;52.086;5.090;2023-03-01T06:37:48;-1.00;99.90
22940;DHT22;11636;52.086;5.090;2023-03-01T06:40:21;-1.00;99.90
22940;DHT22;11636;52.086;5.090;2023-03-01T06:42:49;-1.00;99.90
22940;DHT22;11636;52.086;5.090;2023-03-01T06:45:23;-1.00;99.90
22940;DHT22;11636;52.086;5.090;2023-03-01T06:48:14;-0.90;99.90
22940;DHT22;11636;52.086;5.090;2023-03-01T06:50:48;-0.90;99.90
22940;DHT22;11636;52.086;5.090;2023-03-01T06:53:21;-0.90;99.90
22940;DHT22;11636;52.086;5.090;2023-03-01T06:55:58;-0.90;99.90
22940;DHT22;11636;52.086;5.090;2023-03-01T06:58:26;-0.80;99.90
22940;DHT22;11636;52.086;5.090;2023-03-01T07:01:00;-0.80;99.90
22940;DHT22;11636;52.086;5.090;2023-03-01T07:03:32;-0.80;99.90
22940;DHT22;11636;52.086;5.090;2023-03-01T07:05:58;-0.80;99.90
22940;DHT22;11636;52.086;5.090;2023-03-01T07:08:32;-0.70;99.90
22940;DHT22;11636;52.086;5.090;2023-03-01T07:10:59;-0.70;99.90
22940;DHT22;11636;52.086;5.090;2023-03-01T07:13:35;-0.70;99.90
22940;DHT22;11636;52.086;5.090;2023-03-01T07:16:02;-0.70;99.90
22940;DHT22;11636;52.086;5.090;2023-03-01T07:18:35;-0.60;99.90
22940;DHT22;11636;52.086;5.090;2023-03-01T07:21:09;-0.60;99.90
22940;DHT22;11636;52.086;5.090;2023-03-01T07:23:47;-0.50;99.90
22940;DHT22;11636;52.086;5.090;2023-03-01T07:26:21;-0.50;99.90
22940;DHT22;11636;52.086;5.090;2023-03-01T07:28:51;-0.50;99.90
22940;DHT22;11636;52.086;5.090;2023-03-01T07:31:25;-0.40;99.90
22940;DHT22;11636;52.086;5.090;2023-03-01T07:34:00;-0.40;99.90
22940;DHT22;11636;52.086;5.090;2023-03-01T07:36:33;-0.30;99.90
22940;DHT22;11636;52.086;5.090;2023-03-01T07:39:00;-0.20;99.90
22940;DHT22;11636;52.086;5.090;2023-03-01T07:41:35;-0.20;99.90
22940;DHT22;11636;52.086;5.090;2023-03-01T07:44:09;-0.20;99.90
22940;DHT22;11636;52.086;5.090;2023-03-01T07:46:36;-0.10;99.90
22940;DHT22;11636;52.086;5.090;2023-03-01T07:49:09;0.00;99.90
22940;DHT22;11636;52.086;5.090;2023-03-01T07:51:36;0.00;99.90
22940;DHT22;11636;52.086;5.090;2023-03-01T07:54:09;0.10;99.90
22940;DHT22;11636;52.086;5.090;2023-03-01T07:56:36;0.20;99.90
22940;DHT22;11636;52.086;5.090;2023-03-01T07:59:09;0.20;99.90
22940;DHT22;11636;52.086;5.090;2023-03-01T08:01:49;0.30;99.90
22940;DHT22;11636;52.086;5.090;2023-03-01T08:04:16;0.30;99.90
22940;DHT22;11636;52.086;5.090;2023-03-01T08:06:49;0.40;99.90
22940;DHT22;11636;52.086;5.090;2023-03-01T08:09:16;0.40;99.90
22940;DHT22;11636;52.086;5.090;2023-03-01T08:11:49;0.50;99.90
22940;DHT22;11636;52.086;5.090;2023-03-01T08:14:22;0.60;99.90
22940;DHT22;11636;52.086;5.090;2023-03-01T08:16:50;0.70;99.90
22940;DHT22;11636;52.086;5.090;2023-03-01T08:19:17;0.70;99.90
22940;DHT22;11636;52.086;5.090;2023-03-01T08:21:50;0.80;99.90
22940;DHT22;11636;52.086;5.090;2023-03-01T08:24:23;0.90;99.90
22940;DHT22;11636;52.086;5.090;2023-03-01T08:26:56;1.00;99.90
22940;DHT22;11636;52.086;5.090;2023-03-01T08:29:31;1.00;99.90
22940;DHT22;11636;52.086;5.090;2023-03-01T08:32:05;1.10;99.90
22940;DHT22;11636;52.086;5.090;2023-03-01T08:34:38;1.10;99.90
22940;DHT22;11636;52.086;5.090;2023-03-01T08:37:08;1.20;99.90
22940;DHT22;11636;52.086;5.090;2023-03-01T08:39:42;1.30;99.90
22940;DHT22;11636;52.086;5.090;2023-03-01T08:42:09;1.30;99.90
22940;DHT22;11636;52.086;5.090;2023-03-01T08:44:42;1.40;99.90
22940;DHT22;11636;52.086;5.090;2023-03-01T08:47:12;1.40;99.90
22940;DHT22;11636;52.086;5.090;2023-03-01T08:49:39;1.50;99.90
22940;DHT22;11636;52.086;5.090;2023-03-01T08:52:12;1.60;99.90
22940;DHT22;11636;52.086;5.090;2023-03-01T08:54:47;1.70;99.90
22940;DHT22;11636;52.086;5.090;2023-03-01T08:57:20;1.80;99.90
22940;DHT22;11636;52.086;5.090;2023-03-01T08:59:47;1.90;99.90
22940;DHT22;11636;52.086;5.090;2023-03-01T09:02:20;2.10;99.90
22940;DHT22;11636;52.086;5.090;2023-03-01T09:04:47;2.20;99.90
22940;DHT22;11636;52.086;5.090;2023-03-01T09:07:26;2.30;99.90
22940;DHT22;11636;52.086;5.090;2023-03-01T09:10:03;2.50;99.90
22940;DHT22;11636;52.086;5.090;2023-03-01T09:12:31;2.60;99.90
22940;DHT22;11636;52.086;5.090;2023-03-01T09:15:04;2.80;99.90
22940;DHT22;11636;52.086;5.090;2023-03-01T09:17:38;3.00;99.90
22940;DHT22;11636;52.086;5.090;2023-03-01T09:20:05;3.10;99.90
22940;DHT22;11636;52.086;5.090;2023-03-01T09:22:35;3.20;99.90
22940;DHT22;11636;52.086;5.090;2023-03-01T09:25:09;3.30;99.90
22940;DHT22;11636;52.086;5.090;2023-03-01T09:27:42;3.40;99.90
22940;DHT22;11636;52.086;5.090;2023-03-01T09:30:09;3.60;99.90
22940;DHT22;11636;52.086;5.090;2023-03-01T09:32:37;3.70;99.90
22940;DHT22;11636;52.086;5.090;2023-03-01T09:35:12;3.80;99.90
22940;DHT22;11636;52.086;5.090;2023-03-01T09:37:45;3.90;99.90
22940;DHT22;11636;52.086;5.090;2023-03-01T09:40:22;4.00;99.90
22940;DHT22;11636;52.086;5.090;2023-03-01T09:43:06;4.10;99.90
22940;DHT22;11636;52.086;5.090;2023-03-01T09:45:43;4.20;99.90
22940;DHT22;11636;52.086;5.090;2023-03-01T09:48:20;4.30;99.90
22940;DHT22;11636;52.086;5.090;2023-03-01T09:50:57;4.40;99.90
22940;DHT22;11636;52.086;5.090;2023-03-01T09:53:33;4.50;99.90
22940;DHT22;11636;52.086;5.090;2023-03-01T09:56:28;4.60;99.90
22940;DHT22;11636;52.086;5.090;2023-03-01T10:09:39;5.10;99.90
22940;DHT22;11636;52.086;5.090;2023-03-01T10:12:20;5.20;99.90
22940;DHT22;11636;52.086;5.090;2023-03-01T10:15:14;5.30;99.90
22940;DHT22;11636;52.086;5.090;2023-03-01T10:18:00;5.40;99.90
22940;DHT22;11636;52.086;5.090;2023-03-01T10:20:56;5.50;99.90
22940;DHT22;11636;52.086;5.090;2023-03-01T10:23:32;5.60;99.90
22940;DHT22;11636;52.086;5.090;2023-03-01T10:26:16;5.70;99.90
22940;DHT22;11636;52.086;5.090;2023-03-01T10:29:06;5.80;99.90
22940;DHT22;11636;52.086;5.090;2023-03-01T10:31:46;5.90;99.90
22940;DHT22;11636;52.086;5.090;2023-03-01T10:34:32;5.90;99.90
22940;DHT22;11636;52.086;5.090;2023-03-01T10:40:03;6.00;99.90
22940;DHT22;11636;52.086;5.090;2023-03-01T10:42:48;6.10;99.90
22940;DHT22;11636;52.086;5.090;2023-03-01T10:50:46;6.30;99.90
22940;DHT22;11636;52.086;5.090;2023-03-01T10:53:22;6.30;99.90
22940;DHT22;11636;52.086;5.090;2023-03-01T10:56:05;6.40;99.90
22940;DHT22;11636;52.086;5.090;2023-03-01T11:01:43;6.60;99.90
22940;DHT22;11636;52.086;5.090;2023-03-01T11:04:13;6.70;99.90
22940;DHT22;11636;52.086;5.090;2023-03-01T11:06:41;6.80;99.90
22940;DHT22;11636;52.086;5.090;2023-03-01T11:09:22;6.90;99.90
22940;DHT22;11636;52.086;5.090;2023-03-01T11:11:57;7.00;99.90
22940;DHT22;11636;52.086;5.090;2023-03-01T11:14:36;7.10;99.90
22940;DHT22;11636;52.086;5.090;2023-03-01T11:17:21;7.20;99.90
22940;DHT22;11636;52.086;5.090;2023-03-01T11:22:33;7.40;99.90
22940;DHT22;11636;52.086;5.090;2023-03-01T11:25:12;7.40;99.90
22940;DHT22;11636;52.086;5.090;2023-03-01T11:27:43;7.50;99.90
22940;DHT22;11636;52.086;5.090;2023-03-01T11:36:15;7.80;99.90
22940;DHT22;11636;52.086;5.090;2023-03-01T11:38:50;7.90;99.90
22940;DHT22;11636;52.086;5.090;2023-03-01T11:41:20;7.90;99.90
22940;DHT22;11636;52.086;5.090;2023-03-01T11:44:25;8.00;99.90
22940;DHT22;11636;52.086;5.090;2023-03-01T11:55:35;8.30;99.40
22940;DHT22;11636;52.086;5.090;2023-03-01T12:01:18;8.50;98.50
22940;DHT22;11636;52.086;5.090;2023-03-01T12:04:09;8.50;98.60
22940;DHT22;11636;52.086;5.090;2023-03-01T12:07:15;8.60;98.20
22940;DHT22;11636;52.086;5.090;2023-03-01T12:10:21;8.80;98.30
22940;DHT22;11636;52.086;5.090;2023-03-01T12:22:03;9.30;96.10
22940;DHT22;11636;52.086;5.090;2023-03-01T12:27:50;9.40;95.10
22940;DHT22;11636;52.086;5.090;2023-03-01T12:42:26;9.80;91.50
22940;DHT22;11636;52.086;5.090;2023-03-01T12:51:14;9.90;88.70
22940;DHT22;11636;52.086;5.090;2023-03-01T12:53:46;9.80;88.10
22940;DHT22;11636;52.086;5.090;2023-03-01T12:56:27;9.90;88.00
22940;DHT22;11636;52.086;5.090;2023-03-01T13:07:33;10.10;85.50
22940;DHT22;11636;52.086;5.090;2023-03-01T13:10:21;10.20;85.00
22940;DHT22;11636;52.086;5.090;2023-03-01T13:18:03;10.30;83.90
22940;DHT22;11636;52.086;5.090;2023-03-01T13:50:00;10.40;77.60
22940;DHT22;11636;52.086;5.090;2023-03-01T13:52:40;10.10;78.60
22940;DHT22;11636;52.086;5.090;2023-03-01T13:57:50;9.80;80.00
22940;DHT22;11636;52.086;5.090;2023-03-01T14:00:37;9.80;80.00
22940;DHT22;11636;52.086;5.090;2023-03-01T14:03:17;9.60;78.70
22940;DHT22;11636;52.086;5.090;2023-03-01T14:06:09;9.50;80.00
22940;DHT22;11636;52.086;5.090;2023-03-01T14:08:50;9.50;80.30
22940;DHT22;11636;52.086;5.090;2023-03-01T14:11:56;9.30;80.60
22940;DHT22;11636;52.086;5.090;2023-03-01T14:19:59;8.90;79.40
22940;DHT22;11636;52.086;5.090;2023-03-01T14:22:36;8.90;79.70
22940;DHT22;11636;52.086;5.090;2023-03-01T14:25:15;8.90;81.20
22940;DHT22;11636;52.086;5.090;2023-03-01T14:28:10;8.80;80.50
22940;DHT22;11636;52.086;5.090;2023-03-01T14:30:45;8.70;81.50
22940;DHT22;11636;52.086;5.090;2023-03-01T14:35:58;8.50;81.80
22940;DHT22;11636;52.086;5.090;2023-03-01T14:41:03;8.40;82.80
22940;DHT22;11636;52.086;5.090;2023-03-01T14:43:32;8.30;82.50
22940;DHT22;11636;52.086;5.090;2023-03-01T14:46:06;8.30;83.00
22940;DHT22;11636;52.086;5.090;2023-03-01T14:48:42;8.20;83.20
22940;DHT22;11636;52.086;5.090;2023-03-01T14:51:16;8.10;82.90
22940;DHT22;11636;52.086;5.090;2023-03-01T14:53:49;8.00;83.00
22940;DHT22;11636;52.086;5.090;2023-03-01T14:56:17;8.00;83.50
22940;DHT22;11636;52.086;5.090;2023-03-01T14:58:46;8.00;83.70
22940;DHT22;11636;52.086;5.090;2023-03-01T15:01:22;7.90;83.50
22940;DHT22;11636;52.086;5.090;2023-03-01T15:03:49;7.90;83.70
22940;DHT22;11636;52.086;5.090;2023-03-01T15:06:19;7.80;83.00
22940;DHT22;11636;52.086;5.090;2023-03-01T15:08:54;7.80;83.50
22940;DHT22;11636;52.086;5.090;2023-03-01T15:11:33;7.70;84.20
22940;DHT22;11636;52.086;5.090;2023-03-01T15:14:36;7.70;84.60
22940;DHT22;11636;52.086;5.090;2023-03-01T15:17:35;7.70;84.70
22940;DHT22;11636;52.086;5.090;2023-03-01T15:20:05;7.60;84.30
22940;DHT22;11636;52.086;5.090;2023-03-01T15:22:43;7.60;84.40
22940;DHT22;11636;52.086;5.090;2023-03-01T15:25:16;7.60;84.80
22940;DHT22;11636;52.086;5.090;2023-03-01T15:27:53;7.50;84.60
22940;DHT22;11636;52.086;5.090;2023-03-01T15:30:23;7.50;84.70
22940;DHT22;11636;52.086;5.090;2023-03-01T15:33:17;7.40;84.80
22940;DHT22;11636;52.086;5.090;2023-03-01T15:35:57;7.40;84.80
22940;DHT22;11636;52.086;5.090;2023-03-01T15:38:34;7.40;85.40
22940;DHT22;11636;52.086;5.090;2023-03-01T15:41:27;7.30;85.50
22940;DHT22;11636;52.086;5.090;2023-03-01T15:44:36;7.30;84.90
22940;DHT22;11636;52.086;5.090;2023-03-01T15:47:34;7.20;85.50
22940;DHT22;11636;52.086;5.090;2023-03-01T15:50:02;7.20;85.70
22940;DHT22;11636;52.086;5.090;2023-03-01T15:52:40;7.20;86.00
22940;DHT22;11636;52.086;5.090;2023-03-01T15:55:25;7.10;86.40
22940;DHT22;11636;52.086;5.090;2023-03-01T15:58:13;7.10;86.80
22940;DHT22;11636;52.086;5.090;2023-03-01T16:00:41;7.10;86.30
22940;DHT22;11636;52.086;5.090;2023-03-01T16:03:27;7.00;86.30
22940;DHT22;11636;52.086;5.090;2023-03-01T16:05:54;7.00;86.80
22940;DHT22;11636;52.086;5.090;2023-03-01T16:08:29;6.90;87.20
22940;DHT22;11636;52.086;5.090;2023-03-01T16:10:55;6.90;87.40
22940;DHT22;11636;52.086;5.090;2023-03-01T16:13:29;6.90;87.90
22940;DHT22;11636;52.086;5.090;2023-03-01T16:15:58;6.80;88.20
22940;DHT22;11636;52.086;5.090;2023-03-01T16:18:31;6.80;89.30
22940;DHT22;11636;52.086;5.090;2023-03-01T16:20:58;6.80;89.00
22940;DHT22;11636;52.086;5.090;2023-03-01T16:23:35;6.70;89.50
22940;DHT22;11636;52.086;5.090;2023-03-01T16:26:03;6.70;90.20
22940;DHT22;11636;52.086;5.090;2023-03-01T16:28:36;6.60;90.10
22940;DHT22;11636;52.086;5.090;2023-03-01T16:31:03;6.60;90.20
22940;DHT22;11636;52.086;5.090;2023-03-01T16:33:31;6.50;90.30
22940;DHT22;11636;52.086;5.090;2023-03-01T16:36:07;6.50;90.50
22940;DHT22;11636;52.086;5.090;2023-03-01T16:38:35;6.40;90.50
22940;DHT22;11636;52.086;5.090;2023-03-01T16:41:13;6.40;90.70
22940;DHT22;11636;52.086;5.090;2023-03-01T16:43:41;6.30;90.90
22940;DHT22;11636;52.086;5.090;2023-03-01T16:46:20;6.30;91.20
22940;DHT22;11636;52.086;5.090;2023-03-01T16:48:54;6.30;91.40
22940;DHT22;11636;52.086;5.090;2023-03-01T16:51:23;6.20;91.50
22940;DHT22;11636;52.086;5.090;2023-03-01T16:53:51;6.10;91.70
22940;DHT22;11636;52.086;5.090;2023-03-01T16:56:24;6.10;91.80
22940;DHT22;11636;52.086;5.090;2023-03-01T16:58:51;6.00;91.70
22940;DHT22;11636;52.086;5.090;2023-03-01T17:01:20;6.00;91.90
22940;DHT22;11636;52.086;5.090;2023-03-01T17:03:57;5.90;92.10
22940;DHT22;11636;52.086;5.090;2023-03-01T17:06:30;5.80;92.50
22940;DHT22;11636;52.086;5.090;2023-03-01T17:09:10;5.80;92.50
22940;DHT22;11636;52.086;5.090;2023-03-01T17:11:44;5.80;92.80
22940;DHT22;11636;52.086;5.090;2023-03-01T17:14:11;5.70;92.90
22940;DHT22;11636;52.086;5.090;2023-03-01T17:16:45;5.60;93.30
22940;DHT22;11636;52.086;5.090;2023-03-01T17:19:14;5.60;94.60
22940;DHT22;11636;52.086;5.090;2023-03-01T17:21:44;5.50;95.20
22940;DHT22;11636;52.086;5.090;2023-03-01T17:24:18;5.40;95.70
22940;DHT22;11636;52.086;5.090;2023-03-01T17:26:45;5.40;96.20
22940;DHT22;11636;52.086;5.090;2023-03-01T17:29:15;5.30;96.60
22940;DHT22;11636;52.086;5.090;2023-03-01T17:31:50;5.30;97.40
22940;DHT22;11636;52.086;5.090;2023-03-01T17:34:24;5.20;97.80
22940;DHT22;11636;52.086;5.090;2023-03-01T17:36:51;5.20;98.20
22940;DHT22;11636;52.086;5.090;2023-03-01T17:39:18;5.10;98.40
22940;DHT22;11636;52.086;5.090;2023-03-01T17:42:02;5.10;98.80
22940;DHT22;11636;52.086;5.090;2023-03-01T17:44:31;5.00;99.00
22940;DHT22;11636;52.086;5.090;2023-03-01T17:47:02;5.00;99.20
22940;DHT22;11636;52.086;5.090;2023-03-01T17:49:37;4.90;99.50
22940;DHT22;11636;52.086;5.090;2023-03-01T17:52:07;4.90;99.80
22940;DHT22;11636;52.086;5.090;2023-03-01T17:54:34;4.80;99.90
22940;DHT22;11636;52.086;5.090;2023-03-01T17:57:11;4.80;99.90
22940;DHT22;11636;52.086;5.090;2023-03-01T17:59:41;4.80;99.90
22940;DHT22;11636;52.086;5.090;2023-03-01T18:02:10;4.70;99.90
22940;DHT22;11636;52.086;5.090;2023-03-01T18:04:45;4.70;99.90
22940;DHT22;11636;52.086;5.090;2023-03-01T18:07:12;4.60;99.90
22940;DHT22;11636;52.086;5.090;2023-03-01T18:09:39;4.60;99.90
22940;DHT22;11636;52.086;5.090;2023-03-01T18:12:12;4.50;99.90
22940;DHT22;11636;52.086;5.090;2023-03-01T18:14:39;4.50;99.90
22940;DHT22;11636;52.086;5.090;2023-03-01T18:17:06;4.40;99.90
22940;DHT22;11636;52.086;5.090;2023-03-01T18:19:43;4.40;99.90
22940;DHT22;11636;52.086;5.090;2023-03-01T18:22:11;4.40;99.90
22940;DHT22;11636;52.086;5.090;2023-03-01T18:24:38;4.30;99.90
22940;DHT22;11636;52.086;5.090;2023-03-01T18:27:13;4.30;99.90
22940;DHT22;11636;52.086;5.090;2023-03-01T18:29:40;4.30;99.90
22940;DHT22;11636;52.086;5.090;2023-03-01T18:32:07;4.30;99.90
22940;DHT22;11636;52.086;5.090;2023-03-01T18:34:40;4.30;99.90
22940;DHT22;11636;52.086;5.090;2023-03-01T18:37:08;4.30;99.90
22940;DHT22;11636;52.086;5.090;2023-03-01T18:39:42;4.30;99.90
22940;DHT22;11636;52.086;5.090;2023-03-01T18:42:09;4.30;99.90
22940;DHT22;11636;52.086;5.090;2023-03-01T18:44:36;4.20;99.90